Kihei, Hawaii
Current Conditions -  °F | °C
As of 2:54 AM on Sunday 23 Nov 2014 (Local Time) from PHOG Reporting Station
Clear Clear  
Wind Chill: 67°   Ceiling: Unl
Heat Index: 67°   Visibility: 10mi
Dew Point: 60°   Wind: 7mph
Humidity: 79%   Direction: 130°SE
Pressure: 30"   Gusts: NA
Location:  20.78°N, 156.46°W
Report Text: PHOG 231254Z AUTO 13006KT 10SM CLR 19/16 A3000 RMK AO2 SLP163 T01940156 TSNO
Loading
Personal Weather Stations






























Interactive Weather Map New forecast layout! Learn more

10-Day Weather Forecast

Advertisements
Track Severe Weather on mobile